Flight Track Log - Related Links

Times and Time Zones

All times are in EDT time to prevent confusion due to time zone crossing. See the FLG3492 flight status page for this flight to view local times or setup timezone preferences in your user account.

Time Position Orientation Groundspeed Altitude Reporting Facility
EDT Latitude Longitude Course Direction KTS MPH feet Rate Location/Type
Tue 06:34:22 AM 38.8000 -77.0333 169° South 175 201 2,700  Level Potomac TRACON
Tue 06:35:22 AM 38.7333 -77.0167 169° South 243 280 5,300 2,789 Climbing Potomac TRACON
Tue 06:36:16 AM 38.7000 -76.9333 117° Southeast 287 330 8,000 2,431 Climbing Potomac TRACON
Tue 06:37:55 AM 38.7944 -76.8247 42° Northeast 319 367 11,500 2,250 Climbing Washington Center
Tue 06:38:56 AM 38.8725 -76.7381 41° Northeast 339 390 14,000 2,400 Climbing Washington Center
Tue 06:39:55 AM 38.9256 -76.6136 61° Northeast 367 422 16,300 1,500 Climbing Washington Center
Tue 06:40:56 AM 38.9831 -76.4781 61° Northeast 397 457 17,000 353 Climbing Washington Center
Tue 06:41:54 AM 39.0297 -76.3397 66° East 413 475 17,000  Level Washington Center
Tue 06:42:56 AM 39.0369 -76.1903 86° East 418 481 17,000  Level Washington Center
Tue 06:43:56 AM 39.0583 -76.0272 80° East 412 474 17,000  Level Washington Center
Tue 06:44:55 AM 39.1047 -75.8886 67° East 412 474 17,000  Level Washington Center
Tue 06:45:56 AM 39.1550 -75.7442 66° East 425 489 17,000  Level Washington Center
Tue 06:46:55 AM 39.2031 -75.6022 66° East 430 495 17,000  Level Washington Center
Tue 06:47:53 AM 39.2531 -75.4550 66° East 435 501 17,000  Level Washington Center
Tue 06:48:55 AM 39.3006 -75.3100 67° East 435 501 17,000  Level Washington Center
Tue 06:49:55 AM 39.3481 -75.1675 67° East 440 506 17,000 -39 Level Washington Center
Tue 06:51:28 AM 39.4244 -74.9500 65° Northeast 431 496 16,900  Descending New York Center
Tue 06:52:28 AM 39.4669 -74.8100 68° East 416 479 17,000  Climbing New York Center
Tue 06:53:28 AM 39.5133 -74.6728 66° East 416 479 16,900 -50 Descending New York Center
Tue 06:54:28 AM 39.5636 -74.5328 65° Northeast 416 479 16,900 50 Level New York Center
Tue 06:55:28 AM 39.6425 -74.4183 48° Northeast 419 482 17,000 50 Climbing New York Center
Tue 06:56:28 AM 39.7144 -74.3142 48° Northeast 426 490 17,000 -50 Level New York Center
Tue 06:57:28 AM 39.7928 -74.1992 48° Northeast 426 490 16,900 -1,450 Descending New York Center
Tue 06:58:28 AM 39.8756 -74.0736 49° Northeast 421 484 14,100 -2,600 Descending New York Center
Tue 06:59:28 AM 39.9472 -73.9686 48° Northeast 406 467 11,700 -1,550 Descending New York Center
Tue 07:00:28 AM 40.0119 -73.8931 42° Northeast 362 417 11,000 -500 Descending New York Center
Tue 07:01:28 AM 40.0764 -73.8172 42° Northeast 328 377 10,700 -981 Descending New York Center
Tue 07:02:12 AM 40.1333 -73.7500 42° Northeast 303 349 9,300 -1,776 Descending New York TRACON
Tue 07:03:06 AM 40.1833 -73.7000 37° Northeast 290 334 7,800 -1,778 Descending New York TRACON
Tue 07:04:00 AM 40.2333 -73.7333 333° Northwest 249 287 6,100 -1,850 Descending New York TRACON
Tue 07:05:06 AM 40.2667 -73.8167 298° West 242 278 4,100 -1,800 Descending New York TRACON
Tue 07:06:00 AM 40.2833 -73.9000 285° West 210 242 2,500 -1,105 Descending New York TRACON
Tue 07:07:00 AM 40.3000 -73.9500 294° West 188 216 2,000 -263 Descending New York TRACON
Tue 07:07:54 AM 40.3500 -73.9500 360° North 193 222 2,000  Level New York TRACON
Tue 07:08:28 AM 40.3833 -73.9533 356° North 172 198 2,000  Level New York Center
Tue 07:09:28 AM 40.4256 -73.9281 24° Northeast 172 198 2,000  Level New York Center
Tue 07:10:28 AM 40.4747 -73.8894 31° Northeast 182 209 2,000  Level New York Center
Tue 07:11:28 AM 40.5214 -73.8561 28° Northeast 187 215 2,000 -100 Level New York Center
Tue 07:12:28 AM 40.5575 -73.8250 33° Northeast 187 215 1,800 -609 Descending New York Center
Tue 07:13:36 AM 40.6000 -73.7833 37° Northeast 140 161 700 -971 Descending New York TRACON
Tue 07:15:00 AM 40.6333 -73.7667 29° Northeast  Level FlightAware Approximate
Tue 07:22:00 AM 40.6398 -73.7789 305° West  Level Estimated
Tue 07:23:00 AM 40.6398 -73.7789 North  Level Estimated

Login

Don't have an account? Register now (free) for customized features, flight alerts, and more!